Time;durP1;ratioP1;P1;durP2;ratioP2;P2;SDS_P1;SDS_P2;PMS_P1;PMS_P2;Temp;Humidity;BMP_temperature;BMP_pressure;BME280_temperature;BME280_humidity;BME280_pressure;Samples;Min_cycle;Max_cycle;Signal;HPM_P1;HPM_P2
2024/01/28 00:02:05;;;;;;;9.30;5.03;;;2.60;99.90;;;;;;4977833;28;20233;-64
2024/01/28 00:04:32;;;;;;;12.70;5.50;;;2.60;99.90;;;;;;5007282;28;20435;-64
2024/01/28 00:07:00;;;;;;;8.13;4.73;;;2.60;99.90;;;;;;5017473;28;20206;-64
2024/01/28 00:09:27;;;;;;;14.30;5.33;;;2.70;99.90;;;;;;5017550;28;20193;-64
2024/01/28 00:11:54;;;;;;;10.77;5.00;;;2.60;99.90;;;;;;5006717;28;20324;-64
2024/01/28 00:14:21;;;;;;;12.50;5.20;;;3.70;99.90;;;;;;5016887;28;20367;-64
2024/01/28 00:16:49;;;;;;;11.97;4.23;;;2.70;99.90;;;;;;4987331;28;20213;-64
2024/01/28 00:19:16;;;;;;;15.37;4.83;;;2.70;99.90;;;;;;5011701;28;20202;-64
2024/01/28 00:21:43;;;;;;;10.57;4.90;;;2.90;99.90;;;;;;5009594;28;21030;-64
2024/01/28 00:24:11;;;;;;;12.23;5.30;;;2.70;99.90;;;;;;5017381;28;20571;-64
2024/01/28 00:26:39;;;;;;;12.00;4.70;;;2.60;99.90;;;;;;5006294;28;20558;-64
2024/01/28 00:29:06;;;;;;;12.20;4.57;;;2.60;99.90;;;;;;5014475;28;20193;-64
2024/01/28 00:31:34;;;;;;;9.83;5.33;;;2.60;99.90;;;;;;4981674;28;20919;-64
2024/01/28 00:34:01;;;;;;;18.43;4.97;;;2.60;99.90;;;;;;5017844;28;20309;-64
2024/01/28 00:36:28;;;;;;;11.50;5.17;;;2.50;99.90;;;;;;4997132;28;20510;-64
2024/01/28 00:38:55;;;;;;;9.20;4.73;;;2.40;99.90;;;;;;5008593;28;20465;-64
2024/01/28 00:41:26;;;;;;;12.53;5.27;;;2.40;99.90;;;;;;4999119;28;20318;-64
2024/01/28 00:43:53;;;;;;;10.83;4.70;;;2.40;99.90;;;;;;5010387;28;20205;-64
2024/01/28 00:46:21;;;;;;;15.23;5.27;;;2.50;99.90;;;;;;5011058;28;20197;-64
2024/01/28 00:48:48;;;;;;;14.33;4.77;;;2.50;99.90;;;;;;4973050;28;20214;-64
2024/01/28 00:51:16;;;;;;;11.03;5.10;;;;;;;;;;5010541;28;20206;-64
2024/01/28 00:53:43;;;;;;;14.97;5.37;;;2.50;99.90;;;;;;5000301;28;20466;-64
2024/01/28 00:56:10;;;;;;;13.47;5.47;;;2.50;99.90;;;;;;5011109;28;20204;-64
2024/01/28 00:58:38;;;;;;;7.83;4.00;;;2.00;99.90;;;;;;5009388;28;20434;-64
2024/01/28 01:01:05;;;;;;;15.93;5.20;;;2.40;99.90;;;;;;5002271;28;20215;-64
2024/01/28 01:03:32;;;;;;;13.03;5.13;;;2.50;99.90;;;;;;4987942;28;20792;-64
2024/01/28 01:05:59;;;;;;;9.57;4.97;;;2.50;99.90;;;;;;5016807;28;20209;-64
2024/01/28 01:08:26;;;;;;;12.23;5.00;;;2.40;99.90;;;;;;4989574;28;20564;-64
2024/01/28 01:10:53;;;;;;;4.70;3.73;;;2.50;99.90;;;;;;5014192;28;21427;-64
2024/01/28 01:13:20;;;;;;;9.17;4.30;;;2.50;99.90;;;;;;5000447;28;22202;-64
2024/01/28 01:15:49;;;;;;;12.50;4.50;;;2.40;99.90;;;;;;5015229;28;20232;-64
2024/01/28 01:18:16;;;;;;;12.57;4.70;;;2.50;99.90;;;;;;5014182;28;20210;-64
2024/01/28 01:20:43;;;;;;;17.50;4.73;;;2.40;99.90;;;;;;4986864;28;20905;-64
2024/01/28 01:23:10;;;;;;;12.87;4.40;;;2.40;99.90;;;;;;5009742;28;20300;-64
2024/01/28 01:25:37;;;;;;;9.07;4.27;;;2.50;99.90;;;;;;5011773;28;20231;-64
2024/01/28 01:28:04;;;;;;;16.67;4.93;;;2.40;99.90;;;;;;5017953;28;20711;-64
2024/01/28 01:30:31;;;;;;;10.33;4.57;;;2.30;99.90;;;;;;5002663;28;20434;-64
2024/01/28 01:32:59;;;;;;;11.73;5.07;;;2.30;99.90;;;;;;5014105;28;20464;-64
2024/01/28 01:35:27;;;;;;;10.97;4.87;;;2.30;99.90;;;;;;4980478;28;20472;-64
2024/01/28 01:37:55;;;;;;;11.50;4.60;;;1.90;99.90;;;;;;5001667;28;20210;-64
2024/01/28 01:40:22;;;;;;;7.73;4.80;;;2.10;99.90;;;;;;5002850;28;20195;-64
2024/01/28 01:42:49;;;;;;;10.63;4.23;;;2.10;99.90;;;;;;5010270;28;20205;-64
2024/01/28 01:45:16;;;;;;;8.40;5.20;;;2.10;99.90;;;;;;5001052;28;20589;-63
2024/01/28 01:47:43;;;;;;;9.47;4.67;;;1.10;99.90;;;;;;5019995;28;20420;-64
2024/01/28 01:50:12;;;;;;;9.00;4.73;;;2.10;99.90;;;;;;4980928;28;20201;-64
2024/01/28 01:52:40;;;;;;;11.37;5.00;;;2.00;99.90;;;;;;5009194;28;20388;-64
2024/01/28 01:55:08;;;;;;;10.57;5.40;;;2.90;99.90;;;;;;5000434;28;20292;-64
2024/01/28 01:57:37;;;;;;;10.40;4.30;;;2.10;99.90;;;;;;5009145;28;20204;-64
2024/01/28 02:00:05;;;;;;;8.47;4.40;;;2.00;99.90;;;;;;5000348;28;20231;-64
2024/01/28 02:02:33;;;;;;;16.63;4.43;;;1.90;99.90;;;;;;5006516;28;20202;-64
2024/01/28 02:05:00;;;;;;;15.90;5.00;;;1.90;99.90;;;;;;4982289;28;20833;-64
2024/01/28 02:07:28;;;;;;;8.60;4.43;;;1.90;99.90;;;;;;5013116;28;20190;-64
2024/01/28 02:09:55;;;;;;;11.53;5.10;;;1.40;99.90;;;;;;5004101;28;20446;-63
2024/01/28 02:12:22;;;;;;;9.83;4.10;;;1.90;99.90;;;;;;5003690;28;20216;-64
2024/01/28 02:14:49;;;;;;;7.40;4.03;;;1.80;99.90;;;;;;5007582;28;20245;-64
2024/01/28 02:17:16;;;;;;;6.97;4.50;;;1.80;99.90;;;;;;5008873;28;20803;-64
2024/01/28 02:19:42;;;;;;;9.47;4.53;;;1.80;99.90;;;;;;5016691;28;21008;-64
2024/01/28 02:22:11;;;;;;;13.27;5.07;;;1.80;99.90;;;;;;4987363;28;20206;-63
2024/01/28 02:24:39;;;;;;;9.47;4.80;;;1.60;99.90;;;;;;5006646;28;20202;-64
2024/01/28 02:27:06;;;;;;;16.20;5.40;;;2.30;99.90;;;;;;5022498;28;20617;-63
2024/01/28 02:29:33;;;;;;;10.70;4.93;;;1.80;99.90;;;;;;5005969;28;20200;-64
2024/01/28 02:32:00;;;;;;;11.33;5.60;;;1.80;99.90;;;;;;5009889;28;20526;-64
2024/01/28 02:34:27;;;;;;;16.27;5.53;;;1.80;99.90;;;;;;5009133;28;20229;-64
2024/01/28 02:36:54;;;;;;;12.27;4.97;;;1.80;99.90;;;;;;4985144;28;20565;-64
2024/01/28 02:39:21;;;;;;;17.47;5.40;;;1.90;99.90;;;;;;5021436;28;20232;-64
2024/01/28 02:41:49;;;;;;;9.77;5.27;;;2.00;99.90;;;;;;5005835;28;20410;-64
2024/01/28 02:44:16;;;;;;;11.00;5.80;;;1.70;99.90;;;;;;5017903;28;20205;-63
2024/01/28 02:46:43;;;;;;;14.20;5.23;;;2.00;99.90;;;;;;5004589;28;20376;-64
2024/01/28 02:49:10;;;;;;;12.37;6.10;;;2.00;99.90;;;;;;5023226;28;20840;-64
2024/01/28 02:51:37;;;;;;;13.27;5.53;;;2.30;99.90;;;;;;4987222;28;20204;-64
2024/01/28 02:54:04;;;;;;;9.97;4.70;;;1.90;99.90;;;;;;5005184;28;20582;-64
2024/01/28 02:56:31;;;;;;;10.57;4.57;;;1.80;99.90;;;;;;5009476;28;20201;-64
2024/01/28 02:58:59;;;;;;;10.60;4.73;;;1.80;99.90;;;;;;5018802;28;20257;-64
2024/01/28 03:01:26;;;;;;;15.87;5.77;;;1.90;99.90;;;;;;5018994;28;20374;-64
2024/01/28 03:03:53;;;;;;;10.67;4.90;;;2.60;99.90;;;;;;5005069;28;20457;-64
2024/01/28 03:06:20;;;;;;;11.80;5.70;;;1.90;99.90;;;;;;5017998;28;20193;-64
2024/01/28 03:08:47;;;;;;;10.33;5.17;;;2.00;99.90;;;;;;4977562;28;20219;-64
2024/01/28 03:11:14;;;;;;;12.87;5.03;;;1.90;99.90;;;;;;5008806;28;20547;-64
2024/01/28 03:13:40;;;;;;;10.67;5.13;;;2.00;99.90;;;;;;5017909;28;20603;-63
2024/01/28 03:16:10;;;;;;;10.47;5.50;;;2.00;99.90;;;;;;5022447;28;20580;-64
2024/01/28 03:18:37;;;;;;;12.07;5.83;;;1.90;99.90;;;;;;5010877;28;20699;-64
2024/01/28 03:21:04;;;;;;;23.17;6.10;;;1.90;99.90;;;;;;5015492;28;20198;-64
2024/01/28 03:23:31;;;;;;;11.87;5.87;;;1.90;99.90;;;;;;4988101;28;20205;-64
2024/01/28 03:25:58;;;;;;;15.57;6.20;;;1.80;99.90;;;;;;5006813;28;20440;-63
2024/01/28 03:28:25;;;;;;;13.27;5.77;;;1.80;99.90;;;;;;5021466;28;20826;-64
2024/01/28 03:30:52;;;;;;;14.43;6.13;;;2.00;99.90;;;;;;5019494;28;20918;-63
2024/01/28 03:33:20;;;;;;;17.00;5.70;;;1.90;99.90;;;;;;5023645;28;20666;-63
2024/01/28 03:35:47;;;;;;;16.67;6.50;;;1.70;99.90;;;;;;5007229;28;20202;-64
2024/01/28 03:38:14;;;;;;;9.40;5.00;;;1.80;99.90;;;;;;4990137;28;20197;-64
2024/01/28 03:40:41;;;;;;;12.17;5.53;;;2.30;99.90;;;;;;5005505;28;20200;-64
2024/01/28 03:43:08;;;;;;;10.80;5.80;;;1.70;99.90;;;;;;5012797;28;20208;-64
2024/01/28 03:45:34;;;;;;;10.17;5.70;;;1.60;99.90;;;;;;5019501;28;20709;-64
2024/01/28 03:48:01;;;;;;;13.57;6.07;;;1.60;99.90;;;;;;5018700;28;20198;-63
2024/01/28 03:50:30;;;;;;;10.20;5.73;;;1.60;99.90;;;;;;5012104;28;20656;-64
2024/01/28 03:52:56;;;;;;;19.37;5.93;;;1.60;99.90;;;;;;4983149;28;21147;-64
2024/01/28 03:55:23;;;;;;;8.60;5.17;;;1.50;99.90;;;;;;5021512;28;20224;-63
2024/01/28 03:57:50;;;;;;;12.90;5.70;;;1.20;99.90;;;;;;5006629;28;20411;-64
2024/01/28 04:00:18;;;;;;;17.90;6.10;;;1.60;99.90;;;;;;5019907;28;20227;-64
2024/01/28 04:02:45;;;;;;;16.90;5.97;;;1.50;99.90;;;;;;5017901;28;20198;-63
2024/01/28 04:05:12;;;;;;;11.13;5.27;;;1.20;99.90;;;;;;5001613;28;20601;-64
2024/01/28 04:07:40;;;;;;;10.10;6.10;;;1.50;99.90;;;;;;5023624;28;20197;-63
2024/01/28 04:10:08;;;;;;;13.73;5.47;;;1.70;99.90;;;;;;4989188;28;20223;-64
2024/01/28 04:12:35;;;;;;;10.37;5.70;;;1.70;99.90;;;;;;5013438;28;20194;-63
2024/01/28 04:15:02;;;;;;;12.03;5.70;;;1.70;99.90;;;;;;5017841;28;20926;-63
2024/01/28 04:17:29;;;;;;;11.10;6.50;;;1.60;99.90;;;;;;5021080;28;20197;-64
2024/01/28 04:19:56;;;;;;;13.77;6.87;;;1.50;99.90;;;;;;5007186;28;20824;-64
2024/01/28 04:22:23;;;;;;;17.17;6.17;;;1.50;99.90;;;;;;5021472;28;20693;-64
2024/01/28 04:24:51;;;;;;;11.63;5.70;;;1.40;99.90;;;;;;4988728;28;20243;-64
2024/01/28 04:27:18;;;;;;;10.97;6.37;;;1.40;99.90;;;;;;5009416;28;20766;-63
2024/01/28 04:29:45;;;;;;;13.63;6.67;;;1.40;99.90;;;;;;5017182;28;20288;-64
2024/01/28 04:32:11;;;;;;;12.73;5.97;;;1.40;99.90;;;;;;5017003;28;20225;-63
2024/01/28 04:34:39;;;;;;;13.13;5.63;;;1.60;99.90;;;;;;4999437;28;20231;-64
2024/01/28 04:37:06;;;;;;;10.87;5.10;;;1.30;99.90;;;;;;5013445;28;20298;-64
2024/01/28 04:39:34;;;;;;;14.33;5.37;;;1.30;99.90;;;;;;4990223;28;20484;-64
2024/01/28 04:42:03;;;;;;;19.73;6.37;;;1.20;99.90;;;;;;5021201;28;20569;-64
2024/01/28 04:44:30;;;;;;;14.37;6.70;;;1.20;99.90;;;;;;5010436;28;20703;-64
2024/01/28 04:46:57;;;;;;;11.17;6.70;;;1.30;99.90;;;;;;5015762;28;20423;-63
2024/01/28 04:49:24;;;;;;;12.17;5.77;;;1.30;99.90;;;;;;5010890;28;20205;-64
2024/01/28 04:51:51;;;;;;;19.77;6.40;;;1.30;99.90;;;;;;5009474;28;20516;-63
2024/01/28 04:54:18;;;;;;;13.53;5.47;;;1.30;99.90;;;;;;5014835;28;20231;-63
2024/01/28 04:56:45;;;;;;;16.20;5.53;;;1.50;99.90;;;;;;4987153;28;20213;-64
2024/01/28 04:59:14;;;;;;;16.07;5.73;;;1.40;99.90;;;;;;5005923;28;20298;-63
2024/01/28 05:01:41;;;;;;;19.13;6.23;;;1.20;99.90;;;;;;5015859;28;20207;-64
2024/01/28 05:04:07;;;;;;;10.43;5.73;;;1.60;99.90;;;;;;5010309;28;20622;-64
2024/01/28 05:06:35;;;;;;;13.57;5.67;;;1.50;99.90;;;;;;4995168;28;20198;-63
2024/01/28 05:09:03;;;;;;;11.93;5.90;;;1.50;99.90;;;;;;5009824;28;20606;-64
2024/01/28 05:11:31;;;;;;;12.93;6.67;;;1.40;99.90;;;;;;4985121;28;20213;-64
2024/01/28 05:13:58;;;;;;;12.30;6.20;;;1.30;99.90;;;;;;5017834;28;20613;-64
2024/01/28 05:16:27;;;;;;;12.77;6.10;;;1.30;99.90;;;;;;5008230;28;20673;-64
2024/01/28 05:18:54;;;;;;;10.70;5.90;;;1.30;99.90;;;;;;5006827;28;20538;-64
2024/01/28 05:21:21;;;;;;;9.87;5.27;;;1.30;99.90;;;;;;5009272;28;20296;-63
2024/01/28 05:23:48;;;;;;;15.47;5.97;;;1.30;99.90;;;;;;5016739;28;20204;-63
2024/01/28 05:26:15;;;;;;;12.33;5.70;;;1.20;99.90;;;;;;5016851;28;20227;-63
2024/01/28 05:28:42;;;;;;;18.53;5.43;;;1.20;99.90;;;;;;4983742;28;20222;-63
2024/01/28 05:31:09;;;;;;;8.83;5.27;;;1.30;99.90;;;;;;5010430;28;20221;-64
2024/01/28 05:33:38;;;;;;;10.90;5.30;;;1.30;99.90;;;;;;5014610;28;20196;-64
2024/01/28 05:36:12;;;;;;;12.50;6.87;;;1.30;99.90;;;;;;5016259;28;20234;-63
2024/01/28 05:38:39;;;;;;;16.53;6.30;;;1.50;99.90;;;;;;5006745;28;20576;-63
2024/01/28 05:41:06;;;;;;;11.80;5.40;;;1.50;99.90;;;;;;5019960;28;20489;-64
2024/01/28 05:43:33;;;;;;;11.33;5.73;;;1.60;99.90;;;;;;4984608;28;20212;-64
2024/01/28 05:46:00;;;;;;;15.20;5.57;;;1.60;99.90;;;;;;5010353;28;22473;-63
2024/01/28 05:48:27;;;;;;;11.33;4.90;;;2.10;99.90;;;;;;5019073;28;20204;-63
2024/01/28 05:50:55;;;;;;;11.00;5.37;;;1.50;99.90;;;;;;5005412;28;20409;-64
2024/01/28 05:53:23;;;;;;;9.33;5.80;;;1.40;99.90;;;;;;5007808;28;20224;-63
2024/01/28 05:55:51;;;;;;;12.07;5.37;;;1.20;99.90;;;;;;5013399;28;20814;-63
2024/01/28 05:58:18;;;;;;;18.50;5.67;;;1.30;99.90;;;;;;4985876;28;20215;-63
2024/01/28 06:00:46;;;;;;;15.90;6.40;;;1.20;99.90;;;;;;5014086;28;20833;-63
2024/01/28 06:03:13;;;;;;;7.97;5.23;;;1.20;99.90;;;;;;5008938;28;20209;-64
2024/01/28 06:05:40;;;;;;;6.80;4.73;;;1.40;99.90;;;;;;5012487;28;20208;-65
2024/01/28 06:08:09;;;;;;;16.53;6.10;;;1.50;99.90;;;;;;5003843;28;20698;-64
2024/01/28 06:10:36;;;;;;;12.43;5.17;;;1.40;99.90;;;;;;5011060;28;20219;-64
2024/01/28 06:13:03;;;;;;;16.97;5.33;;;1.40;99.90;;;;;;4983541;28;22161;-64
2024/01/28 06:15:29;;;;;;;19.23;5.13;;;1.50;99.90;;;;;;5022252;28;20229;-63
2024/01/28 06:17:56;;;;;;;10.00;4.50;;;1.50;99.90;;;;;;5011144;28;20408;-64
2024/01/28 06:20:23;;;;;;;12.73;5.47;;;1.40;99.90;;;;;;5020831;28;20488;-63
2024/01/28 06:22:50;;;;;;;14.70;5.20;;;1.40;99.90;;;;;;4994099;28;20556;-63
2024/01/28 06:25:19;;;;;;;8.43;4.37;;;1.30;99.90;;;;;;5020136;28;20610;-64
2024/01/28 06:27:46;;;;;;;8.20;4.83;;;1.40;99.90;;;;;;5018653;28;20198;-63
2024/01/28 06:30:13;;;;;;;9.47;4.83;;;1.20;99.90;;;;;;4984945;28;20209;-63
2024/01/28 06:32:40;;;;;;;12.03;5.30;;;1.20;99.90;;;;;;5017709;28;20362;-63
2024/01/28 06:35:08;;;;;;;7.90;4.10;;;1.20;99.90;;;;;;5008826;28;20609;-63
2024/01/28 06:37:35;;;;;;;6.13;4.23;;;1.60;99.90;;;;;;5006593;28;20209;-63
2024/01/28 06:40:02;;;;;;;7.20;4.47;;;1.40;99.90;;;;;;5011425;28;20558;-63
2024/01/28 06:42:32;;;;;;;9.90;5.33;;;1.20;99.90;;;;;;5019617;28;20310;-63
2024/01/28 06:44:59;;;;;;;11.70;5.10;;;1.40;99.90;;;;;;4986865;28;20672;-63
2024/01/28 06:47:26;;;;;;;10.30;4.80;;;1.40;99.90;;;;;;5021141;28;20590;-63
2024/01/28 06:49:53;;;;;;;9.03;4.00;;;1.40;99.90;;;;;;5010941;28;20444;-63
2024/01/28 06:52:20;;;;;;;12.23;4.93;;;1.50;99.90;;;;;;5011399;28;20208;-64
2024/01/28 06:54:47;;;;;;;9.67;5.30;;;1.30;99.90;;;;;;4992365;28;20980;-63
2024/01/28 06:57:13;;;;;;;10.13;4.50;;;1.40;99.90;;;;;;5012357;28;20655;-64
2024/01/28 06:59:43;;;;;;;14.20;4.27;;;1.30;99.90;;;;;;5013378;28;20195;-63
2024/01/28 07:02:09;;;;;;;7.63;4.13;;;1.40;99.90;;;;;;4986503;28;20578;-64
2024/01/28 07:04:36;;;;;;;14.90;4.53;;;1.40;99.90;;;;;;5016962;28;20364;-64
2024/01/28 07:07:04;;;;;;;15.23;5.23;;;1.60;99.90;;;;;;5000315;28;20556;-63
2024/01/28 07:09:31;;;;;;;11.03;4.80;;;2.00;99.90;;;;;;5010692;28;20518;-63
2024/01/28 07:11:58;;;;;;;18.20;5.27;;;1.80;99.90;;;;;;5001858;28;20519;-63
2024/01/28 07:14:25;;;;;;;14.57;5.03;;;1.70;99.90;;;;;;5010456;28;20204;-63
2024/01/28 07:16:53;;;;;;;15.07;4.37;;;1.80;99.90;;;;;;4975692;28;20287;-63
2024/01/28 07:19:20;;;;;;;13.53;4.80;;;1.80;99.90;;;;;;5019617;28;20204;-64
2024/01/28 07:21:47;;;;;;;14.70;5.00;;;1.80;99.90;;;;;;4993906;28;20842;-64
2024/01/28 07:24:14;;;;;;;7.87;4.73;;;1.80;99.90;;;;;;5018620;28;20727;-63
2024/01/28 07:26:43;;;;;;;12.60;5.33;;;1.80;99.90;;;;;;5002152;28;20208;-63
2024/01/28 07:29:09;;;;;;;9.47;4.93;;;2.30;99.90;;;;;;5019418;28;20748;-63
2024/01/28 07:31:37;;;;;;;13.50;5.20;;;;;;;;;;5001408;28;20224;-64
2024/01/28 07:34:06;;;;;;;10.53;4.73;;;0.20;99.90;;;;;;5013987;28;20200;-64
2024/01/28 07:36:33;;;;;;;10.33;4.90;;;2.00;99.90;;;;;;5000307;28;21046;-63
2024/01/28 07:38:59;;;;;;;13.47;5.83;;;1.80;99.90;;;;;;5001241;28;20231;-64
2024/01/28 07:41:28;;;;;;;8.33;4.57;;;1.80;99.90;;;;;;5014992;28;20235;-64
2024/01/28 07:43:55;;;;;;;22.63;5.27;;;1.80;99.90;;;;;;5004419;28;20206;-64
2024/01/28 07:46:22;;;;;;;10.80;4.13;;;2.20;99.90;;;;;;5013001;28;20205;-63
2024/01/28 07:48:49;;;;;;;12.17;4.10;;;1.80;99.90;;;;;;4983535;28;20781;-63
2024/01/28 07:51:17;;;;;;;13.47;4.80;;;2.20;99.90;;;;;;5017844;28;20734;-63
2024/01/28 07:53:44;;;;;;;12.90;3.80;;;1.70;99.90;;;;;;4991284;28;20203;-63
2024/01/28 07:56:11;;;;;;;10.87;4.27;;;1.80;99.90;;;;;;5010244;28;20223;-64
2024/01/28 07:58:38;;;;;;;7.70;4.37;;;1.70;99.90;;;;;;5002909;28;20607;-63
2024/01/28 08:01:05;;;;;;;10.17;4.80;;;1.80;99.90;;;;;;5010832;28;20197;-63
2024/01/28 08:03:32;;;;;;;10.10;4.50;;;1.80;99.90;;;;;;4954070;28;21669;-64
2024/01/28 08:05:58;;;;;;;11.30;4.03;;;2.20;99.90;;;;;;5012801;28;20558;-64
2024/01/28 08:08:27;;;;;;;16.20;4.30;;;1.90;99.90;;;;;;4995107;28;20214;-63
2024/01/28 08:10:54;;;;;;;5.67;4.00;;;2.00;99.90;;;;;;5011290;28;20336;-64
2024/01/28 08:13:22;;;;;;;8.47;4.47;;;1.90;99.90;;;;;;5001245;28;21388;-63
2024/01/28 08:15:49;;;;;;;6.57;3.77;;;1.90;99.90;;;;;;4998685;28;20627;-63
2024/01/28 08:18:16;;;;;;;14.60;4.93;;;2.00;99.90;;;;;;4966009;28;20210;-63
2024/01/28 08:20:43;;;;;;;7.10;4.23;;;2.00;99.90;;;;;;5018508;28;20197;-63
2024/01/28 08:23:09;;;;;;;13.20;4.83;;;1.60;99.90;;;;;;4993027;28;20209;-64
2024/01/28 08:25:38;;;;;;;9.37;4.17;;;2.10;99.90;;;;;;4998805;28;20201;-64
2024/01/28 08:28:05;;;;;;;8.00;4.67;;;2.10;99.90;;;;;;4998624;28;20201;-63
2024/01/28 08:30:31;;;;;;;8.07;3.97;;;2.20;99.90;;;;;;4992395;28;20344;-64
2024/01/28 08:32:58;;;;;;;12.40;4.60;;;2.20;99.90;;;;;;4974196;28;20568;-63
2024/01/28 08:35:25;;;;;;;12.17;5.23;;;2.20;99.90;;;;;;4972718;28;20235;-64
2024/01/28 08:37:52;;;;;;;15.20;5.10;;;2.10;99.90;;;;;;4993377;28;20742;-64
2024/01/28 08:40:20;;;;;;;11.57;4.70;;;2.10;99.90;;;;;;5000990;28;20210;-64
2024/01/28 08:42:48;;;;;;;10.07;4.67;;;2.20;99.90;;;;;;4998983;28;21673;-64
2024/01/28 08:45:15;;;;;;;14.50;5.93;;;2.20;99.90;;;;;;4986998;28;20213;-63
2024/01/28 08:47:42;;;;;;;22.13;6.40;;;2.30;99.90;;;;;;4926273;28;21051;-64
2024/01/28 08:50:10;;;;;;;7.30;4.73;;;2.30;99.90;;;;;;4986444;28;20687;-63
2024/01/28 08:52:37;;;;;;;10.37;4.70;;;2.70;99.90;;;;;;4993941;28;20205;-64
2024/01/28 08:55:05;;;;;;;13.50;5.03;;;2.40;99.90;;;;;;4999191;28;20893;-64
2024/01/28 08:57:32;;;;;;;10.97;5.03;;;2.30;99.90;;;;;;5010984;28;20212;-64
2024/01/28 09:00:00;;;;;;;13.30;4.60;;;2.30;99.90;;;;;;5003743;28;20700;-63
2024/01/28 09:02:27;;;;;;;10.17;4.57;;;2.40;99.90;;;;;;4971278;28;20240;-64
2024/01/28 09:04:54;;;;;;;11.37;4.70;;;2.30;99.90;;;;;;4962642;28;20217;-64
2024/01/28 09:07:21;;;;;;;8.07;4.50;;;2.30;99.90;;;;;;4977808;28;20221;-63
2024/01/28 09:09:48;;;;;;;16.97;4.73;;;2.40;99.90;;;;;;4985181;28;20638;-64
2024/01/28 09:12:14;;;;;;;12.07;4.47;;;2.50;99.90;;;;;;4999957;28;20664;-64
2024/01/28 09:14:41;;;;;;;12.87;3.97;;;1.60;99.90;;;;;;5008942;28;20251;-64
2024/01/28 09:17:10;;;;;;;11.70;3.90;;;2.60;99.90;;;;;;4990319;28;20233;-64
2024/01/28 09:19:37;;;;;;;7.20;3.97;;;3.00;99.90;;;;;;4975332;28;20371;-63
2024/01/28 09:22:05;;;;;;;15.10;4.77;;;2.60;99.90;;;;;;4996253;28;20319;-64
2024/01/28 09:24:32;;;;;;;12.13;4.43;;;2.70;99.90;;;;;;4980910;28;20233;-64
2024/01/28 09:27:01;;;;;;;6.33;3.70;;;;;;;;;;4983774;28;20315;-64
2024/01/28 09:29:30;;;;;;;5.67;3.90;;;2.80;99.90;;;;;;4998878;28;20211;-64
2024/01/28 09:31:59;;;;;;;9.67;3.83;;;;;;;;;;5003295;28;20206;-64
2024/01/28 09:34:28;;;;;;;11.43;4.37;;;2.90;99.90;;;;;;4964912;28;21178;-64
2024/01/28 09:36:55;;;;;;;15.13;4.43;;;3.00;99.90;;;;;;5015922;28;20306;-64
2024/01/28 09:39:22;;;;;;;6.07;3.20;;;3.00;99.90;;;;;;4991584;28;20212;-64
2024/01/28 09:41:56;;;;;;;11.07;4.37;;;3.00;99.90;;;;;;4985913;28;20225;-64
2024/01/28 09:44:22;;;;;;;11.43;3.73;;;3.10;99.90;;;;;;5009004;28;20292;-64
2024/01/28 09:46:50;;;;;;;9.17;4.10;;;3.10;99.90;;;;;;4976522;28;20233;-64
2024/01/28 09:49:17;;;;;;;7.73;4.07;;;3.40;99.90;;;;;;4956971;28;27739;-64
2024/01/28 09:51:46;;;;;;;8.23;3.87;;;3.20;99.90;;;;;;5011636;28;21041;-63
2024/01/28 09:54:13;;;;;;;9.93;4.37;;;3.20;99.90;;;;;;4981241;28;20429;-64
2024/01/28 09:56:42;;;;;;;10.60;4.60;;;3.30;99.90;;;;;;4998886;28;20229;-64
2024/01/28 09:59:10;;;;;;;8.40;3.57;;;3.30;99.90;;;;;;4998362;28;20237;-64
2024/01/28 10:01:41;;;;;;;10.63;5.03;;;2.20;99.90;;;;;;5010468;28;20218;-63
2024/01/28 10:04:10;;;;;;;14.77;4.20;;;3.40;99.90;;;;;;4995810;28;20682;-64
2024/01/28 10:06:37;;;;;;;10.43;3.90;;;3.40;99.90;;;;;;4971640;28;20687;-63
2024/01/28 10:09:06;;;;;;;6.93;3.97;;;3.40;99.90;;;;;;4998789;28;20676;-64
2024/01/28 10:11:33;;;;;;;13.73;4.43;;;3.50;99.90;;;;;;4995222;28;20635;-64
2024/01/28 10:14:00;;;;;;;11.90;3.97;;;3.50;99.90;;;;;;4978725;28;20216;-64
2024/01/28 10:16:31;;;;;;;14.17;4.40;;;3.60;99.90;;;;;;5010680;28;20576;-64
2024/01/28 10:18:58;;;;;;;7.20;4.00;;;3.60;99.90;;;;;;4991654;28;20208;-64
2024/01/28 10:21:26;;;;;;;11.47;3.67;;;3.60;99.90;;;;;;4968290;28;20452;-64
2024/01/28 10:23:53;;;;;;;8.23;4.07;;;3.70;99.90;;;;;;5009208;28;20533;-64
2024/01/28 10:26:22;;;;;;;16.20;4.10;;;3.70;99.90;;;;;;4991172;28;20352;-62
2024/01/28 10:28:49;;;;;;;14.13;3.87;;;3.80;99.90;;;;;;4979258;28;21018;-65
2024/01/28 10:31:17;;;;;;;11.73;4.33;;;3.90;99.90;;;;;;4993046;28;20206;-63
2024/01/28 10:33:44;;;;;;;6.60;3.40;;;4.00;99.90;;;;;;4971138;28;20214;-65
2024/01/28 10:36:12;;;;;;;7.90;3.17;;;4.00;99.90;;;;;;4954753;28;20235;-64
2024/01/28 10:38:44;;;;;;;7.67;3.20;;;2.60;99.90;;;;;;4990233;28;20348;-65
2024/01/28 10:41:15;;;;;;;9.33;2.87;;;4.10;99.90;;;;;;4981393;28;20201;-64
2024/01/28 10:43:46;;;;;;;12.00;3.10;;;4.10;99.90;;;;;;4962244;28;20207;-64
2024/01/28 10:46:17;;;;;;;9.53;3.47;;;4.10;99.90;;;;;;4995884;28;20220;-65
2024/01/28 10:48:51;;;;;;;11.20;3.80;;;4.50;99.90;;;;;;4974639;28;20524;-63
2024/01/28 10:51:19;;;;;;;7.30;3.43;;;4.30;99.90;;;;;;4962806;28;20218;-63
2024/01/28 10:53:47;;;;;;;7.10;3.80;;;4.40;99.90;;;;;;5014134;28;20574;-63
2024/01/28 10:56:14;;;;;;;12.83;3.37;;;4.30;99.90;;;;;;5003244;28;21414;-63
2024/01/28 10:58:43;;;;;;;7.70;3.07;;;4.50;99.90;;;;;;4974342;28;20298;-63
2024/01/28 11:01:10;;;;;;;8.43;3.10;;;4.50;99.90;;;;;;4997830;28;20482;-65
2024/01/28 11:03:37;;;;;;;9.03;2.93;;;4.60;99.90;;;;;;4999525;28;20565;-63
2024/01/28 11:06:04;;;;;;;8.20;3.03;;;4.40;99.90;;;;;;4959546;28;20433;-65
2024/01/28 11:08:31;;;;;;;7.23;3.60;;;4.70;99.90;;;;;;5009549;28;20193;-63
2024/01/28 11:10:58;;;;;;;6.47;2.77;;;4.80;99.90;;;;;;4998713;28;22594;-63
2024/01/28 11:13:25;;;;;;;12.60;4.57;;;4.70;99.90;;;;;;4996079;28;20206;-63
2024/01/28 11:15:55;;;;;;;12.87;3.57;;;4.80;99.90;;;;;;4980066;28;20238;-63
2024/01/28 11:18:29;;;;;;;12.33;4.10;;;4.80;99.90;;;;;;5011164;28;20200;-65
2024/01/28 11:20:56;;;;;;;7.70;4.73;;;4.90;99.90;;;;;;4945325;28;20856;-65
2024/01/28 11:23:23;;;;;;;15.93;3.70;;;4.90;99.90;;;;;;4996676;28;20369;-65
2024/01/28 11:25:54;;;;;;;8.23;3.40;;;4.90;99.90;;;;;;5005220;28;20687;-63
2024/01/28 11:28:21;;;;;;;11.37;3.90;;;4.90;99.90;;;;;;4985376;28;20225;-63
2024/01/28 11:30:52;;;;;;;13.70;4.43;;;5.00;99.90;;;;;;4971746;28;20958;-63
2024/01/28 11:33:20;;;;;;;12.10;4.70;;;5.10;99.90;;;;;;5013442;28;20200;-63
2024/01/28 11:35:47;;;;;;;14.20;4.07;;;5.10;99.90;;;;;;4988685;28;20812;-63
2024/01/28 11:38:21;;;;;;;15.37;4.63;;;5.20;99.90;;;;;;4978313;28;20226;-62
2024/01/28 11:40:57;;;;;;;9.30;3.97;;;5.20;99.90;;;;;;5004410;28;20365;-64
2024/01/28 11:43:24;;;;;;;11.93;4.67;;;5.20;99.90;;;;;;4973924;28;20675;-63
2024/01/28 11:45:51;;;;;;;12.53;4.90;;;5.30;99.90;;;;;;4975611;28;20208;-63
2024/01/28 11:48:21;;;;;;;18.30;5.77;;;5.20;99.90;;;;;;5009806;28;20217;-63
2024/01/28 11:50:48;;;;;;;8.63;4.30;;;5.30;99.90;;;;;;4984499;28;21669;-63
2024/01/28 11:53:15;;;;;;;7.17;3.73;;;5.40;99.90;;;;;;4973250;28;20308;-63
2024/01/28 11:55:42;;;;;;;11.27;3.87;;;5.40;99.90;;;;;;5009230;28;22124;-63
2024/01/28 11:58:09;;;;;;;11.13;3.90;;;5.50;99.90;;;;;;4998810;28;20993;-63
2024/01/28 12:00:36;;;;;;;10.70;4.27;;;4.40;99.90;;;;;;4992647;28;20354;-62
2024/01/28 12:03:03;;;;;;;9.97;4.07;;;5.50;99.90;;;;;;5000689;28;20202;-63
2024/01/28 12:05:32;;;;;;;11.80;3.67;;;6.10;99.90;;;;;;5007682;28;20550;-64
2024/01/28 12:07:59;;;;;;;9.83;4.50;;;5.60;99.90;;;;;;4965019;28;20615;-62
2024/01/28 12:10:27;;;;;;;9.97;4.03;;;;;;;;;;5014024;28;20204;-63
2024/01/28 12:12:58;;;;;;;7.60;4.13;;;5.50;99.90;;;;;;5010847;28;20213;-63
2024/01/28 12:15:25;;;;;;;6.20;3.43;;;5.60;99.90;;;;;;4983801;28;20774;-63
2024/01/28 12:17:52;;;;;;;11.87;4.00;;;5.50;99.90;;;;;;4997034;28;20236;-64
2024/01/28 12:20:23;;;;;;;8.10;3.87;;;5.50;99.90;;;;;;4993744;28;20225;-63
2024/01/28 12:22:54;;;;;;;8.60;4.43;;;5.60;99.90;;;;;;4964893;28;21624;-63
2024/01/28 12:25:22;;;;;;;6.67;3.80;;;5.50;99.90;;;;;;5004354;28;20228;-62
2024/01/28 12:27:51;;;;;;;11.23;4.20;;;5.60;99.90;;;;;;5005737;28;20220;-64
2024/01/28 12:30:18;;;;;;;10.47;4.30;;;5.60;99.90;;;;;;4983310;28;20225;-64
2024/01/28 12:32:45;;;;;;;7.30;4.30;;;6.00;99.90;;;;;;5005073;28;20240;-63
2024/01/28 12:35:13;;;;;;;7.43;3.90;;;5.70;99.90;;;;;;4985172;28;20762;-64
2024/01/28 12:37:40;;;;;;;9.60;3.80;;;5.70;99.90;;;;;;4972781;28;20217;-64
2024/01/28 12:40:10;;;;;;;8.27;3.90;;;5.70;99.90;;;;;;4993868;28;20244;-63
2024/01/28 12:42:39;;;;;;;7.33;3.40;;;5.70;99.90;;;;;;4988095;28;20995;-63
2024/01/28 12:45:07;;;;;;;8.60;3.70;;;5.90;99.90;;;;;;4990241;28;20318;-63
2024/01/28 12:47:36;;;;;;;10.97;3.70;;;5.80;99.90;;;;;;4988019;28;21416;-63
2024/01/28 12:50:05;;;;;;;9.33;4.00;;;5.80;99.90;;;;;;4992298;28;20233;-63
2024/01/28 12:52:32;;;;;;;7.53;3.63;;;5.90;99.90;;;;;;4971957;28;20726;-63